Time;durP1;ratioP1;P1;durP2;ratioP2;P2;SDS_P1;SDS_P2;PMS_P1;PMS_P2;Temp;Humidity;BMP_temperature;BMP_pressure;BME280_temperature;BME280_humidity;BME280_pressure;Samples;Min_cycle;Max_cycle;Signal;HPM_P1;HPM_P2
2023/10/19 00:13:28;;;;;;;5.63;1.00;;;;;;;;;;6278066;22;1386883;-39
2023/10/19 00:15:57;;;;;;;4.97;0.80;;;;;;;;;;6348169;22;20515;-39
2023/10/19 00:18:25;;;;;;;5.95;0.90;;;;;;;;;;6329386;22;20517;-39
2023/10/19 00:20:59;;;;;;;6.07;0.80;;;;;;;;;;6343739;22;20127;-41
2023/10/19 00:23:31;;;;;;;5.47;0.73;;;;;;;;;;6341131;22;20428;-40
2023/10/19 00:25:59;;;;;;;5.50;0.88;;;;;;;;;;6331947;22;20014;-40
2023/10/19 00:28:27;;;;;;;6.57;0.80;;;;;;;;;;6343116;22;20014;-40
2023/10/19 00:31:02;;;;;;;5.50;0.60;;;;;;;;;;6341585;22;20025;-40
2023/10/19 00:33:32;;;;;;;6.57;0.57;;;;;;;;;;6336629;22;20010;-40
2023/10/19 00:36:07;;;;;;;6.55;0.47;;;;;;;;;;6337758;22;20021;-39
2023/10/19 00:38:47;;;;;;;5.03;0.82;;;;;;;;;;6339373;22;20014;-40
2023/10/19 00:41:21;;;;;;;13.70;1.20;;;;;;;;;;6317813;22;20665;-40
2023/10/19 00:43:57;;;;;;;4.32;0.75;;;;;;;;;;6342448;22;20105;-40
2023/10/19 00:46:31;;;;;;;4.22;0.57;;;;;;;;;;6334896;22;20394;-40
2023/10/19 00:49:00;;;;;;;5.50;1.10;;;;;;;;;;6343499;22;20041;-40
2023/10/19 00:51:40;;;;;;;3.40;0.47;;;;;;;;;;6339869;22;20120;-41
2023/10/19 00:54:10;;;;;;;6.47;0.80;;;;;;;;;;6340672;22;20038;-40
2023/10/19 00:56:41;;;;;;;3.90;0.40;;;;;;;;;;6339923;22;20087;-39
2023/10/19 00:59:14;;;;;;;6.05;1.27;;;;;;;;;;6342305;22;20266;-40
2023/10/19 01:01:45;;;;;;;4.78;0.50;;;;;;;;;;6351905;22;20022;-40
2023/10/19 01:04:14;;;;;;;3.17;0.60;;;;;;;;;;6341601;22;20543;-40
2023/10/19 01:06:44;;;;;;;8.17;0.90;;;;;;;;;;6341723;22;20063;-39
2023/10/19 01:09:14;;;;;;;4.30;0.57;;;;;;;;;;6343872;22;20042;-39
2023/10/19 01:11:45;;;;;;;6.70;0.77;;;;;;;;;;6338160;22;20444;-39
2023/10/19 01:14:22;;;;;;;3.05;0.40;;;;;;;;;;6339513;22;20018;-45
2023/10/19 01:16:50;;;;;;;5.20;0.70;;;;;;;;;;6318257;22;20357;-40
2023/10/19 01:19:20;;;;;;;5.57;0.80;;;;;;;;;;6338225;22;20014;-40
2023/10/19 01:21:51;;;;;;;4.70;0.65;;;;;;;;;;6337231;22;20025;-40
2023/10/19 01:24:34;;;;;;;4.05;0.73;;;;;;;;;;6347226;22;20018;-40
2023/10/19 01:27:08;;;;;;;10.73;1.58;;;;;;;;;;6338953;22;20029;-40
2023/10/19 01:29:37;;;;;;;6.22;0.93;;;;;;;;;;6330668;22;20011;-40
2023/10/19 01:32:08;;;;;;;15.87;1.40;;;;;;;;;;6339656;22;20029;-40
2023/10/19 01:34:37;;;;;;;5.95;1.20;;;;;;;;;;6336722;22;20018;-39
2023/10/19 01:37:05;;;;;;;8.13;1.08;;;;;;;;;;6324478;22;20049;-40
2023/10/19 01:39:38;;;;;;;7.28;1.20;;;;;;;;;;6338528;22;20022;-40
2023/10/19 01:42:08;;;;;;;5.85;1.00;;;;;;;;;;6341577;22;20022;-40
2023/10/19 01:44:36;;;;;;;6.67;0.77;;;;;;;;;;6330284;22;20085;-40
2023/10/19 01:47:05;;;;;;;7.65;1.00;;;;;;;;;;6316098;22;20366;-39
2023/10/19 01:49:34;;;;;;;5.60;1.05;;;;;;;;;;6343490;22;20011;-40
2023/10/19 01:52:00;;;;;;;10.05;1.15;;;;;;;;;;6339066;22;20433;-39
2023/10/19 01:54:28;;;;;;;8.93;0.90;;;;;;;;;;6340341;22;20018;-40
2023/10/19 01:56:56;;;;;;;7.70;1.00;;;;;;;;;;6348276;22;20071;-40
2023/10/19 01:59:27;;;;;;;9.27;1.02;;;;;;;;;;6335640;22;20033;-40
2023/10/19 02:01:54;;;;;;;4.70;0.60;;;;;;;;;;6341003;22;20022;-40
2023/10/19 02:04:22;;;;;;;5.55;1.00;;;;;;;;;;6305899;22;20022;-40
2023/10/19 02:06:53;;;;;;;5.35;0.80;;;;;;;;;;6327614;22;20068;-40
2023/10/19 02:09:23;;;;;;;7.63;0.90;;;;;;;;;;6341314;22;20019;-40
2023/10/19 02:11:52;;;;;;;8.55;1.15;;;;;;;;;;6343971;22;20022;-40
2023/10/19 02:14:22;;;;;;;7.25;1.30;;;;;;;;;;6326119;22;20368;-40
2023/10/19 02:16:51;;;;;;;5.55;1.38;;;;;;;;;;6317861;22;20402;-40
2023/10/19 02:19:23;;;;;;;4.60;1.00;;;;;;;;;;6339316;22;20024;-43
2023/10/19 02:21:53;;;;;;;8.47;1.20;;;;;;;;;;6347066;22;20049;-40
2023/10/19 02:24:22;;;;;;;5.15;1.13;;;;;;;;;;6332823;22;20022;-39
2023/10/19 02:26:51;;;;;;;6.15;0.90;;;;;;;;;;6320913;22;20361;-39
2023/10/19 02:29:18;;;;;;;7.65;0.85;;;;;;;;;;6334304;22;20276;-40
2023/10/19 02:31:49;;;;;;;7.15;0.90;;;;;;;;;;6349666;22;20010;-40
2023/10/19 02:34:15;;;;;;;6.63;0.90;;;;;;;;;;6330707;22;20501;-40
2023/10/19 02:36:44;;;;;;;5.13;0.95;;;;;;;;;;6341210;22;20011;-40
2023/10/19 02:39:13;;;;;;;10.65;1.00;;;;;;;;;;6338352;22;20028;-40
2023/10/19 02:41:41;;;;;;;4.57;0.93;;;;;;;;;;6341125;22;20032;-40
2023/10/19 02:44:11;;;;;;;5.80;1.02;;;;;;;;;;6339963;22;20018;-40
2023/10/19 02:46:38;;;;;;;5.30;1.10;;;;;;;;;;6346258;22;20014;-40
2023/10/19 02:49:11;;;;;;;6.45;0.90;;;;;;;;;;6339479;22;20019;-40
2023/10/19 02:51:40;;;;;;;7.57;1.30;;;;;;;;;;6351883;22;20010;-39
2023/10/19 02:54:15;;;;;;;10.60;1.73;;;;;;;;;;6316585;22;20421;-40
2023/10/19 02:56:43;;;;;;;8.77;1.60;;;;;;;;;;6342477;22;20025;-40
2023/10/19 02:59:12;;;;;;;11.43;1.80;;;;;;;;;;6339367;22;20083;-39
2023/10/19 03:01:44;;;;;;;9.18;1.67;;;;;;;;;;6347005;22;20390;-40
2023/10/19 03:04:13;;;;;;;9.75;1.40;;;;;;;;;;6338047;22;20018;-42
2023/10/19 03:06:40;;;;;;;11.15;1.45;;;;;;;;;;6341924;22;20167;-40
2023/10/19 03:09:13;;;;;;;11.07;1.98;;;;;;;;;;6334481;22;20014;-40
2023/10/19 03:11:40;;;;;;;10.03;2.07;;;;;;;;;;6331930;22;20020;-40
2023/10/19 03:14:09;;;;;;;12.48;2.25;;;;;;;;;;6343003;22;20035;-40
2023/10/19 03:16:41;;;;;;;24.95;2.75;;;;;;;;;;6338454;22;20018;-41
2023/10/19 03:19:09;;;;;;;18.55;2.50;;;;;;;;;;6342827;22;20437;-40
2023/10/19 03:21:42;;;;;;;16.90;2.40;;;;;;;;;;6333836;22;20022;-40
2023/10/19 03:24:12;;;;;;;16.03;2.70;;;;;;;;;;6344983;22;20367;-40
2023/10/19 03:26:43;;;;;;;20.13;2.67;;;;;;;;;;6335887;22;20010;-39
2023/10/19 03:29:13;;;;;;;26.38;3.83;;;;;;;;;;6342395;22;20014;-41
2023/10/19 03:31:44;;;;;;;27.75;3.58;;;;;;;;;;6337006;22;20018;-40
2023/10/19 03:34:12;;;;;;;25.98;2.97;;;;;;;;;;6337676;22;20053;-40
2023/10/19 03:36:42;;;;;;;28.53;5.00;;;;;;;;;;6339119;22;20093;-40
2023/10/19 03:39:13;;;;;;;30.17;3.53;;;;;;;;;;6341920;22;20050;-39
2023/10/19 03:41:42;;;;;;;27.23;4.85;;;;;;;;;;6337018;22;20441;-39
2023/10/19 03:44:14;;;;;;;28.50;4.28;;;;;;;;;;6344287;22;20137;-40
2023/10/19 03:46:52;;;;;;;22.10;3.83;;;;;;;;;;6332719;22;20385;-41
2023/10/19 03:49:21;;;;;;;25.47;4.57;;;;;;;;;;6341466;22;20014;-40
2023/10/19 03:52:00;;;;;;;25.75;4.75;;;;;;;;;;6334552;22;20010;-40
2023/10/19 03:54:28;;;;;;;21.58;3.35;;;;;;;;;;6328143;22;20036;-40
2023/10/19 03:57:01;;;;;;;20.67;3.70;;;;;;;;;;6336958;22;20060;-40
2023/10/19 03:59:32;;;;;;;25.20;3.70;;;;;;;;;;6342708;22;20020;-40
2023/10/19 04:02:07;;;;;;;26.50;3.30;;;;;;;;;;6334092;22;20018;-40
2023/10/19 04:04:35;;;;;;;23.35;3.92;;;;;;;;;;6333420;22;20097;-40
2023/10/19 04:07:11;;;;;;;28.58;4.45;;;;;;;;;;6338504;22;20440;-40
2023/10/19 04:09:56;;;;;;;27.50;5.10;;;;;;;;;;6327731;22;20744;-40
2023/10/19 04:12:24;;;;;;;23.63;4.30;;;;;;;;;;6334965;22;20015;-40
2023/10/19 04:14:53;;;;;;;21.10;3.40;;;;;;;;;;6327967;22;20022;-40
2023/10/19 04:17:23;;;;;;;25.27;3.72;;;;;;;;;;6340657;22;20021;-39
2023/10/19 04:19:52;;;;;;;23.95;4.18;;;;;;;;;;6346738;22;20154;-40
2023/10/19 04:22:23;;;;;;;26.58;4.40;;;;;;;;;;6335930;22;20029;-39
2023/10/19 04:24:51;;;;;;;21.77;3.58;;;;;;;;;;6339880;22;20015;-40
2023/10/19 04:27:22;;;;;;;19.27;3.53;;;;;;;;;;6337086;22;20457;-40
2023/10/19 04:29:52;;;;;;;17.45;3.00;;;;;;;;;;6333933;22;20024;-40
2023/10/19 04:32:25;;;;;;;19.17;2.85;;;;;;;;;;6345825;22;20703;-40
2023/10/19 04:34:53;;;;;;;19.40;2.67;;;;;;;;;;6339818;22;20093;-39
2023/10/19 04:37:24;;;;;;;15.90;2.50;;;;;;;;;;6335362;22;20015;-39
2023/10/19 04:39:52;;;;;;;15.00;2.43;;;;;;;;;;6339335;22;20412;-39
2023/10/19 04:42:22;;;;;;;17.65;2.88;;;;;;;;;;6338576;22;20336;-40
2023/10/19 04:44:50;;;;;;;14.73;2.30;;;;;;;;;;6330704;22;20022;-39
2023/10/19 04:47:17;;;;;;;14.80;2.33;;;;;;;;;;6340268;22;20023;-40
2023/10/19 04:49:46;;;;;;;16.63;3.10;;;;;;;;;;6331168;22;20014;-40
2023/10/19 04:52:14;;;;;;;14.00;2.80;;;;;;;;;;6333020;22;20394;-40
2023/10/19 04:54:43;;;;;;;17.48;2.97;;;;;;;;;;6345017;22;20041;-39
2023/10/19 04:57:14;;;;;;;17.73;2.53;;;;;;;;;;6308574;22;20018;-39
2023/10/19 04:59:45;;;;;;;13.50;2.05;;;;;;;;;;6333573;22;20015;-39
2023/10/19 05:02:12;;;;;;;15.85;2.67;;;;;;;;;;6335540;22;20550;-39
2023/10/19 05:04:41;;;;;;;13.17;1.90;;;;;;;;;;6333769;22;20042;-39
2023/10/19 05:07:11;;;;;;;8.93;1.77;;;;;;;;;;6336444;22;20091;-40
2023/10/19 05:09:39;;;;;;;9.63;2.05;;;;;;;;;;6339523;22;20024;-40
2023/10/19 05:12:09;;;;;;;11.02;1.30;;;;;;;;;;6337661;22;20018;-39
2023/10/19 05:14:37;;;;;;;11.68;1.67;;;;;;;;;;6321125;22;20340;-40
2023/10/19 05:17:05;;;;;;;13.40;1.77;;;;;;;;;;6339625;22;20135;-39
2023/10/19 05:19:34;;;;;;;10.90;1.70;;;;;;;;;;6327145;22;20011;-39
2023/10/19 05:22:06;;;;;;;11.32;2.60;;;;;;;;;;6333338;22;20325;-39
2023/10/19 05:24:34;;;;;;;9.55;1.20;;;;;;;;;;6327710;22;20022;-41
2023/10/19 05:27:02;;;;;;;20.05;2.75;;;;;;;;;;6321396;22;20067;-40
2023/10/19 05:29:34;;;;;;;8.47;1.63;;;;;;;;;;6336539;22;20015;-39
2023/10/19 05:32:03;;;;;;;14.25;2.03;;;;;;;;;;6333912;22;20014;-39
2023/10/19 05:34:32;;;;;;;14.18;1.95;;;;;;;;;;6326404;22;20441;-40
2023/10/19 05:37:03;;;;;;;17.73;1.70;;;;;;;;;;6324103;22;20021;-39
2023/10/19 05:39:33;;;;;;;11.65;1.70;;;;;;;;;;6309593;22;20437;-40
2023/10/19 05:42:01;;;;;;;16.33;2.40;;;;;;;;;;6330618;22;20505;-39
2023/10/19 05:44:30;;;;;;;14.13;2.58;;;;;;;;;;6333241;22;20445;-39
2023/10/19 05:47:02;;;;;;;13.45;1.98;;;;;;;;;;6332318;22;20014;-39
2023/10/19 05:49:29;;;;;;;13.32;2.33;;;;;;;;;;6335376;22;20071;-39
2023/10/19 05:51:57;;;;;;;12.73;1.73;;;;;;;;;;6335769;22;20027;-40
2023/10/19 05:54:26;;;;;;;13.73;2.28;;;;;;;;;;6318628;22;20075;-39
2023/10/19 05:56:54;;;;;;;17.40;2.33;;;;;;;;;;6339778;22;20018;-39
2023/10/19 05:59:23;;;;;;;20.98;3.38;;;;;;;;;;6337172;22;20018;-39
2023/10/19 06:01:52;;;;;;;14.90;2.55;;;;;;;;;;6332200;22;20098;-39
2023/10/19 06:04:21;;;;;;;13.13;1.90;;;;;;;;;;6343168;22;20590;-40
2023/10/19 06:06:49;;;;;;;19.92;2.58;;;;;;;;;;6324392;22;20018;-40
2023/10/19 06:09:20;;;;;;;20.17;2.60;;;;;;;;;;6341756;22;20124;-39
2023/10/19 06:11:49;;;;;;;17.40;2.45;;;;;;;;;;6337136;22;20036;-40
2023/10/19 06:14:19;;;;;;;24.63;2.35;;;;;;;;;;6332625;22;20021;-40
2023/10/19 06:16:47;;;;;;;15.88;2.13;;;;;;;;;;6330075;22;20018;-40
2023/10/19 06:19:16;;;;;;;21.30;2.35;;;;;;;;;;6336638;22;20014;-40
2023/10/19 06:21:46;;;;;;;20.97;2.70;;;;;;;;;;6333304;22;20784;-41
2023/10/19 06:24:14;;;;;;;14.15;1.90;;;;;;;;;;6337842;22;20022;-40
2023/10/19 06:26:43;;;;;;;22.63;2.65;;;;;;;;;;6330895;22;20010;-40
2023/10/19 06:29:11;;;;;;;15.35;2.05;;;;;;;;;;6336636;22;20121;-39
2023/10/19 06:31:40;;;;;;;17.55;2.15;;;;;;;;;;6331695;22;20014;-39
2023/10/19 06:34:10;;;;;;;24.83;3.50;;;;;;;;;;6336899;22;20022;-39
2023/10/19 06:36:38;;;;;;;16.85;2.78;;;;;;;;;;6336976;22;20042;-39
2023/10/19 06:39:08;;;;;;;13.27;2.08;;;;;;;;;;6337930;22;20015;-39
2023/10/19 06:41:35;;;;;;;16.73;1.92;;;;;;;;;;6328066;22;20015;-40
2023/10/19 06:44:04;;;;;;;14.77;1.95;;;;;;;;;;6335779;22;20046;-39
2023/10/19 06:46:32;;;;;;;21.27;2.13;;;;;;;;;;6338675;22;20458;-39
2023/10/19 06:49:00;;;;;;;22.30;2.63;;;;;;;;;;6333781;22;20041;-40
2023/10/19 06:51:29;;;;;;;18.38;2.15;;;;;;;;;;6341711;22;20460;-40
2023/10/19 06:53:57;;;;;;;16.08;2.80;;;;;;;;;;6324405;22;20440;-40
2023/10/19 06:56:27;;;;;;;14.90;2.17;;;;;;;;;;6341844;22;20420;-40
2023/10/19 06:58:54;;;;;;;15.80;1.53;;;;;;;;;;6332417;22;20464;-40
2023/10/19 07:01:26;;;;;;;8.07;1.75;;;;;;;;;;6337356;22;20014;-39
2023/10/19 07:03:54;;;;;;;17.30;2.13;;;;;;;;;;6334611;22;20841;-39
2023/10/19 07:06:21;;;;;;;21.45;2.75;;;;;;;;;;6329331;22;20018;-40
2023/10/19 07:08:49;;;;;;;17.73;2.13;;;;;;;;;;6338503;22;20022;-39
2023/10/19 07:11:16;;;;;;;16.50;2.10;;;;;;;;;;6327424;22;20442;-39
2023/10/19 07:13:46;;;;;;;16.95;3.60;;;;;;;;;;6335985;22;20022;-39
2023/10/19 07:16:14;;;;;;;25.50;2.90;;;;;;;;;;6326344;22;20025;-39
2023/10/19 07:18:41;;;;;;;25.77;3.72;;;;;;;;;;6334880;22;20014;-39
2023/10/19 07:21:11;;;;;;;21.42;5.05;;;;;;;;;;6321065;22;20022;-41
2023/10/19 07:23:40;;;;;;;26.03;3.07;;;;;;;;;;6330719;22;20063;-39
2023/10/19 07:26:08;;;;;;;22.08;2.95;;;;;;;;;;6338319;22;20018;-41
2023/10/19 07:28:36;;;;;;;16.33;2.65;;;;;;;;;;6320050;22;20014;-39
2023/10/19 07:31:12;;;;;;;8.00;1.25;;;;;;;;;;6326125;22;20517;-41
2023/10/19 07:33:45;;;;;;;8.80;1.10;;;;;;;;;;6329236;22;20010;-39
2023/10/19 07:36:14;;;;;;;8.03;1.20;;;;;;;;;;6336220;22;20024;-39
2023/10/19 07:38:43;;;;;;;8.52;1.00;;;;;;;;;;6330432;22;20496;-40
2023/10/19 07:41:11;;;;;;;7.53;1.27;;;;;;;;;;6333048;22;20473;-40
2023/10/19 07:43:39;;;;;;;7.60;1.13;;;;;;;;;;6332082;22;20641;-40
2023/10/19 07:46:08;;;;;;;8.90;1.33;;;;;;;;;;6325233;22;20014;-39
2023/10/19 07:48:36;;;;;;;9.00;0.90;;;;;;;;;;6336428;22;20099;-40
2023/10/19 07:51:11;;;;;;;10.98;1.38;;;;;;;;;;6333631;22;20025;-39
2023/10/19 07:53:40;;;;;;;8.13;0.98;;;;;;;;;;6332534;22;20021;-40
2023/10/19 07:56:08;;;;;;;8.32;1.25;;;;;;;;;;6326685;22;20475;-39
2023/10/19 07:58:37;;;;;;;7.25;0.98;;;;;;;;;;6335330;22;20010;-40
2023/10/19 08:01:05;;;;;;;8.23;1.60;;;;;;;;;;6342159;22;20614;-39
2023/10/19 08:03:39;;;;;;;13.60;1.98;;;;;;;;;;6320683;22;20381;-39
2023/10/19 08:06:10;;;;;;;9.75;1.10;;;;;;;;;;6310037;22;20337;-39
2023/10/19 08:08:43;;;;;;;5.47;1.13;;;;;;;;;;6296862;22;20094;-40
2023/10/19 08:11:12;;;;;;;9.55;1.55;;;;;;;;;;6315108;22;20042;-40
2023/10/19 08:13:40;;;;;;;8.73;1.47;;;;;;;;;;6303690;22;20026;-39
2023/10/19 08:16:08;;;;;;;8.10;0.90;;;;;;;;;;6304867;22;20024;-39
2023/10/19 08:18:37;;;;;;;12.35;1.52;;;;;;;;;;6325770;22;20021;-41
2023/10/19 08:21:04;;;;;;;21.58;2.08;;;;;;;;;;6300855;22;20021;-40
2023/10/19 08:23:33;;;;;;;19.30;1.90;;;;;;;;;;6303821;22;20018;-41
2023/10/19 08:26:01;;;;;;;17.23;3.17;;;;;;;;;;6282881;22;20045;-39
2023/10/19 08:28:29;;;;;;;18.58;2.67;;;;;;;;;;6310428;22;20093;-40
2023/10/19 08:31:01;;;;;;;18.55;3.13;;;;;;;;;;6314754;22;20014;-40
2023/10/19 08:33:33;;;;;;;22.58;3.55;;;;;;;;;;6297967;22;20425;-39
2023/10/19 08:36:04;;;;;;;23.35;3.20;;;;;;;;;;6313380;22;20093;-39
2023/10/19 08:38:33;;;;;;;22.70;3.60;;;;;;;;;;6311236;22;20014;-39
2023/10/19 08:41:06;;;;;;;16.10;2.45;;;;;;;;;;6320566;22;20033;-39
2023/10/19 08:43:34;;;;;;;21.27;2.50;;;;;;;;;;6296280;22;20117;-40
2023/10/19 08:46:06;;;;;;;26.35;3.08;;;;;;;;;;6301421;22;20018;-41
2023/10/19 08:48:38;;;;;;;25.65;3.03;;;;;;;;;;6319478;22;20014;-40
2023/10/19 08:51:10;;;;;;;26.70;3.73;;;;;;;;;;6287507;22;20019;-39
2023/10/19 08:53:40;;;;;;;22.98;2.50;;;;;;;;;;6294523;22;20038;-39
2023/10/19 08:56:08;;;;;;;22.40;3.50;;;;;;;;;;6274387;22;20401;-40
2023/10/19 08:58:37;;;;;;;28.52;3.40;;;;;;;;;;6291726;22;20045;-41
2023/10/19 09:01:08;;;;;;;23.88;3.47;;;;;;;;;;6308719;22;20018;-39
2023/10/19 09:03:38;;;;;;;22.57;3.73;;;;;;;;;;6280260;22;20532;-39
2023/10/19 09:06:07;;;;;;;35.35;4.68;;;;;;;;;;6313345;22;20105;-39
2023/10/19 09:08:41;;;;;;;24.63;3.58;;;;;;;;;;6302027;22;20789;-39
2023/10/19 09:11:11;;;;;;;26.15;3.72;;;;;;;;;;6291404;22;20022;-39
2023/10/19 09:13:46;;;;;;;28.88;2.83;;;;;;;;;;6297230;22;20071;-41
2023/10/19 09:16:15;;;;;;;18.73;2.73;;;;;;;;;;6303176;22;20018;-39
2023/10/19 09:18:43;;;;;;;22.45;3.28;;;;;;;;;;6309796;22;20488;-39
2023/10/19 09:21:23;;;;;;;24.42;3.80;;;;;;;;;;6309018;22;20014;-40
2023/10/19 09:24:01;;;;;;;20.02;2.53;;;;;;;;;;6284651;22;20078;-39
2023/10/19 09:26:29;;;;;;;33.85;3.15;;;;;;;;;;6315151;22;20018;-40
2023/10/19 09:28:56;;;;;;;20.90;3.20;;;;;;;;;;6321737;22;20122;-39
2023/10/19 09:31:27;;;;;;;21.83;3.40;;;;;;;;;;6335028;22;20018;-40
2023/10/19 09:33:56;;;;;;;26.65;3.28;;;;;;;;;;6338580;22;20360;-40
2023/10/19 09:36:29;;;;;;;19.73;3.47;;;;;;;;;;6338362;22;20456;-39
2023/10/19 09:38:57;;;;;;;31.13;3.92;;;;;;;;;;6323440;22;20022;-40
2023/10/19 09:41:28;;;;;;;30.20;3.27;;;;;;;;;;6338351;22;20042;-39
2023/10/19 09:44:00;;;;;;;28.73;3.63;;;;;;;;;;6327510;22;20467;-41
2023/10/19 09:46:31;;;;;;;19.38;3.92;;;;;;;;;;6327564;22;20018;-39
2023/10/19 09:49:00;;;;;;;24.85;3.30;;;;;;;;;;6339806;22;20011;-40
2023/10/19 09:51:30;;;;;;;21.58;3.08;;;;;;;;;;6333938;22;20032;-39
2023/10/19 09:54:00;;;;;;;24.63;3.37;;;;;;;;;;6329214;22;20019;-39
2023/10/19 09:56:31;;;;;;;22.13;3.10;;;;;;;;;;6340404;22;20026;-40
2023/10/19 09:59:02;;;;;;;18.42;2.72;;;;;;;;;;6331370;22;20018;-40
2023/10/19 10:01:50;;;;;;;26.70;4.43;;;;;;;;;;6337932;22;20038;-41
2023/10/19 10:04:31;;;;;;;14.35;2.13;;;;;;;;;;6341686;22;20541;-39
2023/10/19 10:07:03;;;;;;;16.77;2.67;;;;;;;;;;6335546;22;20693;-40
2023/10/19 10:09:33;;;;;;;18.95;3.25;;;;;;;;;;6332369;22;20014;-39
2023/10/19 10:12:16;;;;;;;25.38;2.55;;;;;;;;;;6315389;22;20473;-39
2023/10/19 10:14:57;;;;;;;22.52;3.20;;;;;;;;;;6334138;22;20011;-39
2023/10/19 10:17:26;;;;;;;19.85;2.63;;;;;;;;;;6309886;22;20015;-40
2023/10/19 10:19:56;;;;;;;25.93;3.70;;;;;;;;;;6312934;22;20018;-39
2023/10/19 10:22:26;;;;;;;18.02;3.47;;;;;;;;;;6327986;22;20010;-39
2023/10/19 10:25:00;;;;;;;20.63;2.90;;;;;;;;;;6339352;22;20022;-39
2023/10/19 10:27:30;;;;;;;20.00;3.55;;;;;;;;;;6343829;22;20053;-39
2023/10/19 10:30:01;;;;;;;22.48;3.00;;;;;;;;;;6329806;22;20341;-39
2023/10/19 10:32:44;;;;;;;17.50;3.00;;;;;;;;;;6340655;22;20014;-39
2023/10/19 10:35:28;;;;;;;22.02;2.58;;;;;;;;;;6324096;22;20097;-39
2023/10/19 10:37:57;;;;;;;23.08;3.70;;;;;;;;;;6338129;22;20120;-39
2023/10/19 10:40:25;;;;;;;19.50;2.97;;;;;;;;;;6336231;22;20075;-39
2023/10/19 10:43:05;;;;;;;21.42;3.20;;;;;;;;;;6307040;22;20021;-40
2023/10/19 10:45:37;;;;;;;21.53;3.03;;;;;;;;;;6341956;22;20093;-39
2023/10/19 10:48:05;;;;;;;19.83;2.90;;;;;;;;;;6328667;22;20022;-39
2023/10/19 10:50:32;;;;;;;20.23;2.88;;;;;;;;;;6340056;22;20024;-40
2023/10/19 10:53:01;;;;;;;21.00;2.90;;;;;;;;;;6337706;22;20500;-39
2023/10/19 10:55:29;;;;;;;24.63;4.10;;;;;;;;;;6335328;22;20018;-41
2023/10/19 10:57:59;;;;;;;20.97;2.97;;;;;;;;;;6340185;22;20018;-39
2023/10/19 11:00:34;;;;;;;23.27;3.50;;;;;;;;;;6338961;22;20017;-39
2023/10/19 11:03:07;;;;;;;19.10;3.60;;;;;;;;;;6336981;22;20089;-39
2023/10/19 11:05:37;;;;;;;12.73;2.45;;;;;;;;;;6321627;22;20686;-40
2023/10/19 11:08:09;;;;;;;24.60;3.35;;;;;;;;;;6316014;22;20022;-41
2023/10/19 11:10:37;;;;;;;21.33;2.83;;;;;;;;;;6314746;22;20018;-39
2023/10/19 11:13:05;;;;;;;28.60;4.13;;;;;;;;;;6303705;22;20516;-41
2023/10/19 11:15:33;;;;;;;17.08;2.90;;;;;;;;;;6313988;22;20018;-40
2023/10/19 11:18:02;;;;;;;27.55;2.28;;;;;;;;;;6281814;22;20010;-39
2023/10/19 11:20:30;;;;;;;33.72;3.70;;;;;;;;;;6313440;22;20017;-40
2023/10/19 11:23:00;;;;;;;20.80;2.57;;;;;;;;;;6315850;22;20604;-40
2023/10/19 11:25:30;;;;;;;23.08;3.80;;;;;;;;;;6301733;22;20021;-40
2023/10/19 11:27:59;;;;;;;18.80;2.67;;;;;;;;;;6319352;22;20040;-41
2023/10/19 11:30:27;;;;;;;16.63;2.25;;;;;;;;;;6315353;22;20018;-39
2023/10/19 11:32:57;;;;;;;23.25;3.35;;;;;;;;;;6288900;22;20018;-42
2023/10/19 11:35:44;;;;;;;16.23;2.80;;;;;;;;;;6303427;22;20022;-39
2023/10/19 11:38:12;;;;;;;19.60;3.13;;;;;;;;;;6310216;22;20014;-41
2023/10/19 11:40:41;;;;;;;21.85;2.67;;;;;;;;;;6303143;22;20018;-38
2023/10/19 11:43:09;;;;;;;20.60;2.28;;;;;;;;;;6307538;22;20586;-39
2023/10/19 11:45:37;;;;;;;24.38;3.70;;;;;;;;;;6317635;22;20019;-40
2023/10/19 11:48:05;;;;;;;23.20;2.73;;;;;;;;;;6309961;22;20099;-39
2023/10/19 11:50:33;;;;;;;17.05;2.70;;;;;;;;;;6321813;22;20024;-38
2023/10/19 11:53:01;;;;;;;19.92;3.38;;;;;;;;;;6312032;22;20014;-38
2023/10/19 11:55:34;;;;;;;24.75;4.22;;;;;;;;;;6307756;22;20618;-39
2023/10/19 11:58:04;;;;;;;19.23;2.58;;;;;;;;;;6318861;22;20046;-39
2023/10/19 12:00:37;;;;;;;16.00;3.07;;;;;;;;;;6311268;22;20403;-39
2023/10/19 12:03:06;;;;;;;23.10;3.67;;;;;;;;;;6309835;22;20464;-39
2023/10/19 12:05:36;;;;;;;21.02;2.75;;;;;;;;;;6313086;22;20416;-39
2023/10/19 12:08:05;;;;;;;21.92;3.15;;;;;;;;;;6312175;22;20448;-39
2023/10/19 12:10:35;;;;;;;21.70;3.25;;;;;;;;;;6313300;22;20572;-39
2023/10/19 12:13:08;;;;;;;29.47;3.63;;;;;;;;;;6311041;22;20022;-39
2023/10/19 12:15:40;;;;;;;25.05;4.15;;;;;;;;;;6297319;22;20014;-40
2023/10/19 12:18:08;;;;;;;21.40;3.72;;;;;;;;;;6313567;22;20360;-39
2023/10/19 12:20:38;;;;;;;18.42;3.33;;;;;;;;;;6312948;22;20337;-38
2023/10/19 12:23:06;;;;;;;18.35;3.17;;;;;;;;;;6310613;22;20038;-39
2023/10/19 12:25:34;;;;;;;19.37;2.63;;;;;;;;;;6276864;22;20014;-39
2023/10/19 12:28:24;;;;;;;14.52;2.42;;;;;;;;;;6302113;22;20456;-39
2023/10/19 12:30:53;;;;;;;12.40;2.47;;;;;;;;;;6322651;22;20034;-39
2023/10/19 12:33:20;;;;;;;18.17;2.60;;;;;;;;;;6302843;22;20509;-41
2023/10/19 12:35:56;;;;;;;16.92;3.20;;;;;;;;;;6310763;22;20019;-40
2023/10/19 12:38:25;;;;;;;18.07;2.47;;;;;;;;;;6308365;22;20804;-39
2023/10/19 12:40:54;;;;;;;14.60;2.90;;;;;;;;;;6312852;22;20011;-38
2023/10/19 12:43:23;;;;;;;21.35;3.33;;;;;;;;;;6296328;22;20345;-39
2023/10/19 12:45:54;;;;;;;20.50;2.75;;;;;;;;;;6311421;22;20014;-39
2023/10/19 12:48:25;;;;;;;19.73;2.90;;;;;;;;;;6312677;22;20022;-39
2023/10/19 12:50:54;;;;;;;19.63;3.13;;;;;;;;;;6313220;22;20028;-39
2023/10/19 12:53:24;;;;;;;19.87;3.30;;;;;;;;;;6281765;22;20018;-40
2023/10/19 12:55:53;;;;;;;16.80;2.80;;;;;;;;;;6312519;22;20106;-39
2023/10/19 12:58:21;;;;;;;17.15;3.08;;;;;;;;;;6303481;22;20479;-39
2023/10/19 13:00:51;;;;;;;14.77;2.90;;;;;;;;;;6321403;22;20037;-39
2023/10/19 13:03:19;;;;;;;14.10;2.70;;;;;;;;;;6305201;22;20489;-39
2023/10/19 13:05:49;;;;;;;15.60;2.47;;;;;;;;;;6310407;22;20037;-40
2023/10/19 13:08:18;;;;;;;15.75;2.97;;;;;;;;;;6307355;22;20113;-40
2023/10/19 13:10:48;;;;;;;11.95;2.90;;;;;;;;;;6322944;22;20504;-39
2023/10/19 13:13:28;;;;;;;17.20;2.17;;;;;;;;;;6314735;22;20014;-39
2023/10/19 13:15:57;;;;;;;16.05;2.72;;;;;;;;;;6310002;22;20014;-38
2023/10/19 13:18:28;;;;;;;16.20;2.50;;;;;;;;;;6323519;22;20018;-39
2023/10/19 13:20:56;;;;;;;15.10;3.47;;;;;;;;;;6309579;22;20026;-39
2023/10/19 13:23:28;;;;;;;15.15;2.60;;;;;;;;;;6317415;22;20050;-42
2023/10/19 13:26:08;;;;;;;20.17;2.95;;;;;;;;;;6321961;22;20041;-39
2023/10/19 13:28:40;;;;;;;17.08;2.60;;;;;;;;;;6314201;22;20022;-39
2023/10/19 13:31:09;;;;;;;14.83;2.40;;;;;;;;;;6321581;22;20018;-40
2023/10/19 13:33:37;;;;;;;12.48;2.20;;;;;;;;;;6303451;22;20091;-41
2023/10/19 13:36:05;;;;;;;13.10;2.70;;;;;;;;;;6326565;22;20441;-39
2023/10/19 13:38:34;;;;;;;12.95;1.92;;;;;;;;;;6312629;22;20447;-40
2023/10/19 13:41:04;;;;;;;17.65;3.33;;;;;;;;;;6317724;22;20651;-40
2023/10/19 13:43:38;;;;;;;14.20;2.70;;;;;;;;;;6316173;22;20494;-40
2023/10/19 13:46:06;;;;;;;20.42;2.92;;;;;;;;;;6306938;22;20323;-40
2023/10/19 13:48:35;;;;;;;24.33;2.70;;;;;;;;;;6302488;22;20018;-39
2023/10/19 13:51:12;;;;;;;20.73;2.95;;;;;;;;;;6325656;22;20025;-39
2023/10/19 13:53:41;;;;;;;23.27;2.75;;;;;;;;;;6306955;22;20320;-39
2023/10/19 13:56:10;;;;;;;15.07;2.97;;;;;;;;;;6333090;22;20014;-42
2023/10/19 13:58:38;;;;;;;16.38;2.80;;;;;;;;;;6338868;22;20010;-41
2023/10/19 14:01:08;;;;;;;20.50;2.90;;;;;;;;;;6332773;22;20596;-38
2023/10/19 14:03:41;;;;;;;16.88;2.85;;;;;;;;;;6327509;22;20485;-39
2023/10/19 14:06:13;;;;;;;19.20;3.33;;;;;;;;;;6337553;22;20014;-39
2023/10/19 14:08:41;;;;;;;21.10;3.90;;;;;;;;;;6329431;22;20014;-39
2023/10/19 14:11:08;;;;;;;18.13;3.10;;;;;;;;;;6334749;22;20459;-39
2023/10/19 14:13:45;;;;;;;18.15;2.35;;;;;;;;;;6318158;22;20506;-39
2023/10/19 14:16:16;;;;;;;20.90;2.67;;;;;;;;;;6285597;22;20129;-39
2023/10/19 14:18:46;;;;;;;20.90;3.08;;;;;;;;;;6328064;22;20025;-39
2023/10/19 14:21:16;;;;;;;23.17;3.17;;;;;;;;;;6322436;22;20063;-40
2023/10/19 14:23:44;;;;;;;18.27;4.57;;;;;;;;;;6336998;22;20063;-39
2023/10/19 14:26:13;;;;;;;19.40;2.75;;;;;;;;;;6327186;22;20011;-39
2023/10/19 14:28:41;;;;;;;16.85;2.42;;;;;;;;;;6337444;22;20075;-41
2023/10/19 14:31:10;;;;;;;23.17;3.42;;;;;;;;;;6318743;22;20442;-40
2023/10/19 14:33:38;;;;;;;15.47;2.33;;;;;;;;;;6325399;22;20028;-40
2023/10/19 14:36:08;;;;;;;20.13;3.40;;;;;;;;;;6328743;22;20011;-41
2023/10/19 14:38:38;;;;;;;15.25;2.63;;;;;;;;;;6324355;22;20496;-39
2023/10/19 14:41:07;;;;;;;14.98;3.17;;;;;;;;;;6301846;22;20376;-40
2023/10/19 14:43:35;;;;;;;15.15;3.45;;;;;;;;;;6328523;22;20025;-42
2023/10/19 14:46:03;;;;;;;16.33;2.43;;;;;;;;;;6325344;22;20018;-38
2023/10/19 14:48:30;;;;;;;15.32;2.50;;;;;;;;;;6331107;22;20017;-39
2023/10/19 14:50:58;;;;;;;20.13;2.55;;;;;;;;;;6333330;22;20011;-39
2023/10/19 14:53:28;;;;;;;20.33;3.78;;;;;;;;;;6328201;22;20017;-39
2023/10/19 14:55:56;;;;;;;18.48;2.60;;;;;;;;;;6321396;22;20037;-39
2023/10/19 14:58:25;;;;;;;22.17;2.53;;;;;;;;;;6338309;22;20018;-39
2023/10/19 15:00:55;;;;;;;18.42;3.20;;;;;;;;;;6336041;22;20445;-40
2023/10/19 15:03:24;;;;;;;12.25;2.00;;;;;;;;;;6341114;22;20022;-39